首页
METAR-TAF:

METAR-TAF

机场 :

明尼阿波利斯-圣保罗国际机场

明尼阿波利斯, 明尼蘇達州, 美国

纬度: 44-52-59N, 经度: 093-13-44W, 海拔: 256米

当前天气观测

该预报发布于1小时和9分钟前的08:53 UTC
风速10节,风向南转南东
温度 18°C
湿度 94%
气压 1005 hPa
能見度: 16.1公里
少量云层高于3400英尺
多云层高于6000英尺

METAR: KMSP 160853Z 15010KT 10SM FEW034 BKN060 18/17 A2967 RMK AO2 RAE35 SLP045 P0004 60066 T01780167 56025

时间: 05:02 (10:02 UTC)

预报

该预报发布于1小时和12分钟前的08:50 UTC
预报有效从16日的 09点(UTC)到 17日的 12点(UTC)
风速11节,风向
能見度: 10公里
少量云层高于3000英尺
多云层高于5000英尺
阴天层高于10000英尺
从 16日的 1500点(UTC)
风速12节,风向南转西南,有时为20节阵风
能見度: 10公里
多云层高于2500英尺
阴天层高于5000英尺
从 17日的 0000点(UTC)
风速11节,风向西南
能見度: 10公里
多云层高于5000英尺
从 17日的 0400点(UTC)
风速6节,风向西转西北
能見度: 10公里
多云层高于4000英尺
从 17日的 0900点(UTC)
风速8节,风向北转东北
能見度: 9.7公里
多云层高于3500英尺
小雨, 轻雾
几率 30%
从 17日的 09点(UTC)到 17日的 12点(UTC)
能見度: 6.4公里
阴天层高于2500英尺, 积雨云.
雷暴, 小雨,

TAF: KMSP 160850Z 1609/1712 17011KT P6SM FEW030 BKN050 OVC100 FM161500 20012G20KT P6SM BKN025 OVC050 FM170000 23011KT P6SM BKN050 FM170400 30006KT P6SM BKN040 FM170900 02008KT 6SM -RA BR BKN035 PROB30 1709/1712 4SM -TSRA OVC025CB

超过4000个机场的气象观测和天气预报(METAR&TAF报告)。

可查询的气象台以黄色和红色小点在地图上表示。

将鼠标移到小点上方,可查看气象台名称。

然后点击查看天气观测和预报。

如需切换地图:点击带黑十字的绿色按钮放大地图;点击带横线的绿色按钮缩小地图;或者点击绿色箭头查看邻近地区的地图。


METAR-TAF: